Terminal Aerodrome Forecast
Issued by NWS Twin Cities, MN

Home | Current Version | Previous Version | Text Only | Print | Product List | Glossary Off
Versions: 1 2 3 4 5 6 7 8 9 10 11 12 13 14

000
FTUS43 KMPX 202340
TAFEAU
TAF
KEAU 202340Z 2100/2124 09010KT 6SM -RA BR SCT007 OVC012
     FM210300 10010KT 3SM -DZ BR OVC007
     FM210700 12006KT 3SM -SHRA BR VCTS OVC007CB
     FM211000 17005KT P6SM SCT007
     FM211400 21009KT P6SM OVC007
     FM211800 25012G19KT P6SM BKN008 OVC014=

USA.gov is the U.S. government's official web portal to all federal, state and local government web resources and services.